Airfield :
LOGIN :

Register | Disclaimer

   EN    FR    IT 

 










Legend :    VFR   Marginal VFR   IFR   Intensive IFR   Very Intensive IFR
Visi :
Ceiling :
>= 8 km
>= 3000ft
5 to 8 km
1000 to 3000 ft
1500m to 5 km
500 to 1000 ft
800 to 1500m
200 to 500 ft
< 800m
< 200 ft
Symbols :   Thunderstorms  Fog  Heavy snow  Heavy precipitations  Wind > 20 kt
SIGMETs :     Misc.  Thunderstorms  Icing  Turbulence  Mountain Waves  Volcanic Ashes






- Airport Elevation : 16 ft
- IATA code : EAS


LESO - San Sebastian Fuenterrabia

CURRENT METAR :
  • 201930Z 16021G34KT 120V210 CAVOK 24/11 Q0998

EXPIRED METARs :
  • 201900Z 18018G28KT 150V210 CAVOK 24/11 Q0998
  • 201830Z 18018G28KT 150V210 CAVOK 24/12 Q0999
  • 201800Z 19013KT 150V220 CAVOK 23/12 Q1000
  • 201730Z 18019G29KT 140V210 CAVOK 24/12 Q1000
  • 201700Z 18013KT 140V220 CAVOK 23/12 Q1001

TAF TAF LESO
Valid from the 20 at 18:00 until the 21 at 18:00 UTC


201700Z 2018/2118 19014KT CAVOK TX24/2112Z TN18/2118Z
TEMPO 2018/2112 19018G28KT
PROB30
TEMPO 2018/2106 19022G38KT RA
TEMPO 2022/2106 22025G42KT



MET'MAP, your aeronautical weather chart ! - Copyright ORBIFLY December 2007 - Disclaimer

ORBIFLY MET'MAP TEAM :

Programming & Development : Alexandra Zaïnal
Concept & original design : Baudouin d'Aumeries
Assistance for programming : Marc-Olivier Méhu
Technical & hardware support : Manuel Goepfert

Contact : metmap@orbifly.com




SOURCES & CREDITS :

   NOAA